Detall de PIREP

Printer-friendly versionPDF version

[2011/04/13 08:21:00]
Flight IATA:CT3409
Pilot Number:011
Company ICAO:CAT
Aircraft Type:F28/A
PAX:85
Departing Airport: LSGG
Destination Airport: LEBL
Alternate Airport:LEPA
Online: VATSIM
Route:BALSI UY16 MTL UZ38 PPG UP84 ALBER
Flight Level:F320
No Slew and time accel
No pause
Crash detect
Detect pilot in Cockpit between each 30 and 45 minutes
08:21 Zero fuel Weight: 60657 Lbs, Fuel Weight: 10257 Lbs
08:21 VATSIM:LSGG 130750Z 03013KT 330V060 9999 FEW032 08/M00 Q1023 NOSIG
08:21 VATSIM:LEBL 130800Z 10006KT 9999 FEW020 SCT038 17/10 Q1021 NOSIG
08:22 Parking Brakes off
08:33 Take-off
08:33 Take off Weight: 70377 Lbs
08:33 Wind: 031º @ 013 Knots Heading: 038º
08:33 POS N46º 14´ 13´´ E006º 06´ 28´´
08:33 Flaps:2 at 158 Knots
08:33 Gear Up: 162 Knots
08:33 Flaps:1 at 219 Knots
08:33 Flaps:0 at 229 Knots
08:48 Wind:003º@039 Knots Heading: 231º Ground Speed: 378 Knots Altitude 31584 ft
08:48 TOC
08:48 Fuel Weight: 7693 Lb
09:03 Wind:341º@067 Knots Heading: 215º Ground Speed: 496 Knots Altitude 32211 ft
09:12 TOD
09:12 Fuel Weight: 5926 Lb
09:18 Wind:019º@017 Knots Heading: 184º Ground Speed: 417 Knots Altitude 23546 ft
09:33 Wind:106º@007 Knots Heading: 167º Ground Speed: 234 Knots Altitude 3746 ft
09:34 Flaps:1 at 214 Knots
09:34 Flaps:2 at 211 Knots
09:35 Flaps:3 at 195 Knots
09:35 Gear Down: 188 Knots
09:35 Flaps:4 at 162 Knots
09:35 Flaps:5 at 157 Knots
09:37 TouchDown:Rate -309 ft/min Speed: 113 Knots
09:37 VATSIM:LEBL 130900Z 11005KT 080V140 9999 FEW030 SCT041 17/09 Q1022 NOSIG
09:37 Land
09:37 Wind:112º@005 Knots
09:37 Heading: 059º
09:37 Flight Duration: 01:04
09:37 Landing Weight: 65697 Lbs
09:37 POS N41º 17´ 57´´ E002º 05´ 07´´
09:40 Parking brakes on
09:40 Block to Block Duration: 01:18
09:40 Final Fuel: 4880 Lbls
09:40 Spent Fuel: 5376 Lbls
09:40 Flight Length: 173 NM
09:40 TOD Land Length: 67 NM

Exportar CSV

Powered by Drupal - Modified by Danger4k